Time;durP1;ratioP1;P1;durP2;ratioP2;P2;SDS_P1;SDS_P2;PMS_P1;PMS_P2;Temp;Humidity;BMP_temperature;BMP_pressure;BME280_temperature;BME280_humidity;BME280_pressure;Samples;Min_cycle;Max_cycle;Signal;HPM_P1;HPM_P2
2023/03/24 00:01:05;;;;;;;5.43;3.67;;;12.10;99.90;;;;;;5053586;28;20093;-62
2023/03/24 00:03:37;;;;;;;5.15;3.72;;;12.00;99.90;;;;;;5051978;28;20559;-63
2023/03/24 00:06:12;;;;;;;6.57;4.25;;;12.00;99.90;;;;;;5035452;28;20044;-63
2023/03/24 00:08:46;;;;;;;5.55;3.50;;;12.00;99.90;;;;;;5052269;28;20036;-62
2023/03/24 00:11:19;;;;;;;9.85;3.83;;;11.90;99.90;;;;;;5037730;28;20048;-63
2023/03/24 00:13:51;;;;;;;8.65;3.72;;;11.90;99.90;;;;;;5053298;28;20036;-63
2023/03/24 00:16:23;;;;;;;5.78;3.65;;;12.00;99.90;;;;;;5061876;28;20037;-62
2023/03/24 00:18:55;;;;;;;6.55;3.88;;;12.00;99.90;;;;;;5040498;28;20040;-63
2023/03/24 00:21:27;;;;;;;8.05;4.03;;;12.10;99.90;;;;;;5051332;28;20045;-63
2023/03/24 00:24:00;;;;;;;5.47;3.70;;;12.10;99.90;;;;;;5053587;28;20033;-63
2023/03/24 00:26:38;;;;;;;4.72;3.67;;;12.10;99.90;;;;;;5053705;28;20064;-62
2023/03/24 00:29:12;;;;;;;5.55;3.83;;;12.10;99.90;;;;;;5048917;28;20048;-62
2023/03/24 00:31:44;;;;;;;;;;;12.20;99.90;;;;;;5052462;28;20051;-63
2023/03/24 00:34:20;;;;;;;4.72;3.40;;;12.20;99.90;;;;;;5048767;28;20011;-63
2023/03/24 00:36:52;;;;;;;4.97;3.63;;;12.20;99.90;;;;;;5052127;28;20064;-62
2023/03/24 00:39:24;;;;;;;5.57;3.60;;;12.30;99.90;;;;;;5044682;28;20049;-62
2023/03/24 00:41:58;;;;;;;5.18;3.85;;;12.30;99.90;;;;;;5039365;28;20037;-62
2023/03/24 00:44:30;;;;;;;;;;;12.30;99.90;;;;;;5052738;28;20097;-63
2023/03/24 00:47:02;;;;;;;4.25;3.20;;;12.40;99.90;;;;;;5053366;28;19920;-63
2023/03/24 00:49:43;;;;;;;5.90;4.15;;;12.40;99.90;;;;;;5049840;28;20037;-63
2023/03/24 00:52:17;;;;;;;5.50;3.53;;;12.50;99.90;;;;;;5032656;28;20041;-63
2023/03/24 00:54:44;;;;;;;7.72;3.95;;;12.50;99.90;;;;;;5032274;28;20048;-63
2023/03/24 00:57:20;;;;;;;7.38;3.33;;;12.60;99.90;;;;;;5050328;28;20509;-63
2023/03/24 00:59:53;;;;;;;5.63;3.75;;;12.60;99.90;;;;;;5049927;28;20047;-62
2023/03/24 01:02:23;;;;;;;4.53;3.55;;;12.50;99.90;;;;;;5053247;28;20029;-63
2023/03/24 01:04:58;;;;;;;6.57;3.85;;;12.50;99.90;;;;;;5018913;28;20037;-63
2023/03/24 01:07:30;;;;;;;7.28;4.50;;;12.50;99.90;;;;;;5048537;28;20055;-64
2023/03/24 01:09:57;;;;;;;4.60;3.40;;;12.50;99.90;;;;;;5053132;28;20501;-63
2023/03/24 01:12:33;;;;;;;6.20;4.05;;;12.40;99.90;;;;;;5051756;28;20048;-63
2023/03/24 01:15:04;;;;;;;5.60;4.10;;;12.30;99.90;;;;;;5032312;28;20120;-63
2023/03/24 01:17:36;;;;;;;5.47;4.15;;;12.20;99.90;;;;;;5050979;28;20048;-63
2023/03/24 01:20:09;;;;;;;8.95;4.00;;;12.00;99.90;;;;;;5061612;28;20511;-63
2023/03/24 01:22:45;;;;;;;5.10;4.03;;;11.80;99.90;;;;;;5033576;28;20128;-64
2023/03/24 01:25:15;;;;;;;5.10;4.25;;;11.70;99.90;;;;;;5031150;28;20037;-63
2023/03/24 01:27:49;;;;;;;6.85;4.18;;;11.50;99.90;;;;;;5056471;28;20504;-63
2023/03/24 01:30:23;;;;;;;4.78;4.20;;;11.40;99.90;;;;;;5049737;28;20051;-63
2023/03/24 01:32:56;;;;;;;7.30;4.60;;;11.40;99.90;;;;;;5051183;28;20048;-63
2023/03/24 01:35:28;;;;;;;7.82;4.57;;;11.40;99.90;;;;;;5049403;28;20056;-63
2023/03/24 01:38:06;;;;;;;5.97;4.88;;;11.40;99.90;;;;;;5039178;28;20052;-63
2023/03/24 01:40:34;;;;;;;6.78;4.50;;;11.40;99.90;;;;;;5050237;28;20036;-63
2023/03/24 01:43:02;;;;;;;6.18;4.40;;;11.40;99.90;;;;;;5053534;28;20060;-63
2023/03/24 01:46:01;;;;;;;6.07;4.63;;;11.40;99.90;;;;;;5054575;28;20140;-63
2023/03/24 01:48:39;;;;;;;5.88;4.35;;;11.40;99.90;;;;;;5035768;28;20043;-63
2023/03/24 01:51:17;;;;;;;6.88;4.63;;;11.40;99.90;;;;;;5032315;28;20470;-63
2023/03/24 01:53:54;;;;;;;7.07;4.68;;;11.40;99.90;;;;;;5050422;28;20048;-63
2023/03/24 01:56:30;;;;;;;6.05;4.30;;;11.30;99.90;;;;;;5052902;28;20041;-63
2023/03/24 01:59:26;;;;;;;6.18;5.10;;;11.30;99.90;;;;;;5029390;28;20421;-63
2023/03/24 02:02:16;;;;;;;6.10;4.68;;;11.20;99.90;;;;;;5048235;28;20051;-63
2023/03/24 02:04:58;;;;;;;7.35;4.20;;;11.10;99.90;;;;;;5048268;28;20045;-63
2023/03/24 02:07:45;;;;;;;6.88;4.72;;;11.10;99.90;;;;;;5037719;28;20502;-63
2023/03/24 02:10:19;;;;;;;7.15;4.68;;;11.00;99.90;;;;;;5031236;28;20135;-63
2023/03/24 02:12:51;;;;;;;;;;;10.90;99.90;;;;;;5026791;28;20043;-63
2023/03/24 02:15:26;;;;;;;6.97;4.75;;;10.90;99.90;;;;;;5062165;28;19924;-62
2023/03/24 02:18:19;;;;;;;6.97;4.40;;;10.80;99.90;;;;;;5033836;28;20045;-63
2023/03/24 02:21:27;;;;;;;5.43;3.92;;;10.80;99.90;;;;;;5051434;28;20045;-63
2023/03/24 02:24:55;;;;;;;6.55;4.13;;;10.80;99.90;;;;;;5037065;28;20044;-63
2023/03/24 02:27:46;;;;;;;5.75;4.43;;;10.90;99.90;;;;;;5053738;28;20025;-63
2023/03/24 02:30:39;;;;;;;5.53;4.45;;;10.90;99.90;;;;;;5039997;28;20052;-63
2023/03/24 02:33:26;;;;;;;5.40;4.60;;;11.00;99.90;;;;;;5038941;28;20045;-63
2023/03/24 02:36:17;;;;;;;7.03;4.20;;;11.00;99.90;;;;;;5057586;28;20274;-63
2023/03/24 02:39:08;;;;;;;6.32;3.55;;;11.00;99.90;;;;;;5035640;28;20048;-63
2023/03/24 02:42:07;;;;;;;4.90;4.13;;;11.00;99.90;;;;;;5039639;28;20134;-63
2023/03/24 02:45:04;;;;;;;6.28;4.20;;;11.00;99.90;;;;;;5054260;28;20033;-63
2023/03/24 02:47:50;;;;;;;5.43;3.92;;;11.00;99.90;;;;;;5053867;28;20569;-63
2023/03/24 02:50:28;;;;;;;6.45;4.25;;;10.90;99.90;;;;;;5050371;28;20132;-63
2023/03/24 02:53:31;;;;;;;6.05;4.72;;;10.90;99.90;;;;;;5054462;28;20040;-63
2023/03/24 02:56:39;;;;;;;5.90;3.90;;;10.90;99.90;;;;;;5035759;28;20033;-63
2023/03/24 03:00:00;;;;;;;9.02;5.07;;;10.90;99.90;;;;;;5050097;28;20132;-63
2023/03/24 03:03:08;;;;;;;5.43;4.50;;;10.90;99.90;;;;;;5054371;28;20102;-63
2023/03/24 03:05:45;;;;;;;7.45;4.28;;;10.90;99.90;;;;;;5038681;28;20079;-62
2023/03/24 03:08:20;;;;;;;5.30;4.13;;;10.90;99.90;;;;;;5052488;28;20043;-63
2023/03/24 03:10:53;;;;;;;5.90;4.10;;;11.00;99.90;;;;;;5035147;28;20044;-63
2023/03/24 03:13:31;;;;;;;6.43;3.92;;;11.00;99.90;;;;;;5052877;28;20033;-63
2023/03/24 03:16:12;;;;;;;4.40;3.95;;;11.00;99.90;;;;;;5035200;28;20414;-63
2023/03/24 03:18:54;;;;;;;5.47;4.28;;;11.10;99.90;;;;;;5036230;28;20052;-63
2023/03/24 03:21:31;;;;;;;7.93;4.35;;;11.10;99.90;;;;;;5055614;28;20413;-62
2023/03/24 03:24:25;;;;;;;5.47;4.15;;;11.10;99.90;;;;;;5035548;28;20532;-63
2023/03/24 03:27:04;;;;;;;6.68;4.25;;;11.10;99.90;;;;;;5037628;28;20067;-63
2023/03/24 03:29:37;;;;;;;5.43;3.92;;;11.20;99.90;;;;;;5053696;28;20053;-62
2023/03/24 03:32:13;;;;;;;4.97;3.88;;;11.20;99.90;;;;;;5052190;28;20037;-63
2023/03/24 03:35:12;;;;;;;5.10;3.80;;;11.20;99.90;;;;;;5050823;28;20036;-63
2023/03/24 03:38:13;;;;;;;6.60;3.95;;;11.20;99.90;;;;;;5054572;28;20045;-63
2023/03/24 03:40:58;;;;;;;6.90;3.90;;;11.20;99.90;;;;;;5054250;28;20048;-63
2023/03/24 03:43:34;;;;;;;6.18;4.15;;;11.20;99.90;;;;;;5036851;28;20041;-63
2023/03/24 03:46:06;;;;;;;5.82;3.85;;;11.20;99.90;;;;;;5037066;28;20063;-62
2023/03/24 03:48:39;;;;;;;5.38;3.50;;;11.10;99.90;;;;;;5036924;28;20041;-63
2023/03/24 03:51:12;;;;;;;6.40;3.50;;;11.20;99.90;;;;;;5063244;28;20037;-63
2023/03/24 03:53:55;;;;;;;4.10;3.42;;;11.20;99.90;;;;;;5063019;28;20052;-63
2023/03/24 03:56:31;;;;;;;7.47;3.70;;;11.20;99.90;;;;;;5033677;28;20102;-62
2023/03/24 03:59:44;;;;;;;5.45;3.55;;;11.20;99.90;;;;;;5044934;28;20056;-63
2023/03/24 04:02:40;;;;;;;6.53;4.30;;;11.20;99.90;;;;;;5054010;28;20107;-63
2023/03/24 04:05:28;;;;;;;5.43;4.13;;;11.30;99.90;;;;;;5052899;28;20247;-63
2023/03/24 04:08:37;;;;;;;5.53;3.97;;;11.30;99.90;;;;;;5037781;28;20041;-63
2023/03/24 04:11:45;;;;;;;4.68;3.28;;;11.30;99.90;;;;;;5052099;28;20648;-63
2023/03/24 04:14:38;;;;;;;5.10;4.18;;;11.30;99.90;;;;;;5055372;28;20047;-63
2023/03/24 04:17:59;;;;;;;7.65;5.15;;;11.30;99.90;;;;;;5053319;28;20040;-63
2023/03/24 04:21:02;;;;;;;6.88;4.90;;;11.30;99.90;;;;;;5062188;28;20093;-63
2023/03/24 04:23:49;;;;;;;7.57;4.63;;;11.20;99.90;;;;;;5036212;28;20033;-63
2023/03/24 04:26:27;;;;;;;7.70;4.95;;;11.20;99.90;;;;;;5034654;28;20041;-63
2023/03/24 04:29:19;;;;;;;5.85;5.25;;;11.10;99.90;;;;;;5064044;28;20063;-63
2023/03/24 04:32:20;;;;;;;6.68;4.80;;;11.10;99.90;;;;;;5035528;28;20067;-63
2023/03/24 04:35:02;;;;;;;4.75;4.22;;;11.10;99.90;;;;;;5037274;28;20131;-63
2023/03/24 04:38:17;;;;;;;6.22;4.15;;;11.00;99.90;;;;;;5039988;28;20045;-63
2023/03/24 04:40:54;;;;;;;5.63;3.58;;;10.90;99.90;;;;;;5033745;28;20116;-63
2023/03/24 04:43:34;;;;;;;5.82;3.90;;;10.80;99.90;;;;;;5032383;28;20539;-63
2023/03/24 04:46:10;;;;;;;5.32;3.83;;;10.80;99.90;;;;;;5034721;28;20041;-63
2023/03/24 04:49:11;;;;;;;4.18;3.38;;;10.90;99.90;;;;;;5032789;28;20044;-63
2023/03/24 04:51:44;;;;;;;3.58;3.28;;;11.50;99.90;;;;;;5055016;28;20041;-62
2023/03/24 04:54:21;;;;;;;7.10;3.53;;;11.70;99.90;;;;;;5034825;28;20601;-63
2023/03/24 04:57:01;;;;;;;4.72;4.03;;;12.00;99.90;;;;;;5035929;28;20496;-63
2023/03/24 04:59:39;;;;;;;6.93;3.75;;;12.20;99.90;;;;;;5053872;28;20142;-63
2023/03/24 05:02:12;;;;;;;6.80;4.10;;;12.40;99.90;;;;;;5051159;28;20110;-63
2023/03/24 05:05:04;;;;;;;4.72;3.90;;;12.40;99.90;;;;;;5020328;28;20052;-63
2023/03/24 05:07:44;;;;;;;4.75;4.03;;;12.40;99.90;;;;;;5032638;28;20140;-62
2023/03/24 05:10:17;;;;;;;4.53;3.92;;;12.40;99.90;;;;;;5035548;28;20140;-63
2023/03/24 05:12:53;;;;;;;4.82;3.47;;;12.40;99.90;;;;;;5052257;28;20029;-63
2023/03/24 05:15:25;;;;;;;5.25;3.63;;;12.40;99.90;;;;;;5053312;28;20049;-64
2023/03/24 05:18:15;;;;;;;5.45;3.67;;;12.30;99.90;;;;;;5050793;28;20048;-63
2023/03/24 05:20:48;;;;;;;4.30;3.30;;;12.30;99.90;;;;;;5047611;28;20143;-63
2023/03/24 05:23:21;;;;;;;5.60;3.63;;;12.20;99.90;;;;;;5035281;28;20033;-62
2023/03/24 05:25:54;;;;;;;5.18;3.67;;;12.10;99.90;;;;;;5019788;28;20037;-63
2023/03/24 05:28:22;;;;;;;5.05;3.70;;;12.10;99.90;;;;;;5050403;28;20062;-63
2023/03/24 05:30:54;;;;;;;5.53;3.58;;;12.00;99.90;;;;;;5016192;28;20053;-64
2023/03/24 05:33:37;;;;;;;4.93;3.57;;;12.00;99.90;;;;;;5034658;28;20042;-63
2023/03/24 05:36:14;;;;;;;5.47;3.58;;;11.90;99.90;;;;;;5049204;28;20045;-63
2023/03/24 05:38:43;;;;;;;6.63;3.90;;;11.90;99.90;;;;;;5065137;28;20080;-63
2023/03/24 05:41:15;;;;;;;5.03;3.80;;;11.80;99.90;;;;;;5044780;28;20045;-63
2023/03/24 05:43:47;;;;;;;5.15;4.20;;;11.70;99.90;;;;;;5047967;28;20033;-64
2023/03/24 05:46:19;;;;;;;5.68;3.80;;;11.80;99.90;;;;;;5051545;28;20044;-63
2023/03/24 05:48:51;;;;;;;5.05;3.72;;;11.70;99.90;;;;;;5032579;28;20449;-63
2023/03/24 05:51:29;;;;;;;4.57;3.72;;;11.70;99.90;;;;;;5018457;28;20045;-63
2023/03/24 05:54:06;;;;;;;5.05;3.95;;;11.60;99.90;;;;;;5033608;28;20520;-63
2023/03/24 05:56:46;;;;;;;5.57;4.20;;;11.60;99.90;;;;;;5044112;28;20044;-62
2023/03/24 05:59:33;;;;;;;5.10;3.97;;;11.60;99.90;;;;;;5038260;28;20124;-63
2023/03/24 06:02:24;;;;;;;6.20;4.07;;;11.60;99.90;;;;;;5036704;28;20048;-62
2023/03/24 06:05:03;;;;;;;5.93;4.25;;;11.60;99.90;;;;;;5035004;28;20063;-62
2023/03/24 06:07:37;;;;;;;5.68;4.03;;;11.60;99.90;;;;;;5040077;28;20505;-62
2023/03/24 06:10:10;;;;;;;4.18;3.38;;;11.60;99.90;;;;;;5031951;28;20037;-62
2023/03/24 06:12:47;;;;;;;3.40;3.10;;;11.60;99.90;;;;;;5035338;28;20052;-62
2023/03/24 06:15:16;;;;;;;7.82;3.55;;;11.70;99.90;;;;;;5068386;28;20128;-62
2023/03/24 06:17:48;;;;;;;6.65;4.75;;;11.80;99.90;;;;;;5035468;28;20037;-62
2023/03/24 06:20:40;;;;;;;5.05;4.40;;;11.80;99.90;;;;;;5054049;28;20567;-62
2023/03/24 06:23:26;;;;;;;5.57;3.55;;;11.80;99.90;;;;;;5044213;28;20041;-62
2023/03/24 06:26:10;;;;;;;4.00;3.25;;;11.90;99.90;;;;;;5037694;28;20033;-62
2023/03/24 06:28:50;;;;;;;5.15;3.65;;;11.90;99.90;;;;;;5036820;28;20054;-62
2023/03/24 06:31:26;;;;;;;4.97;3.67;;;12.10;99.90;;;;;;5054391;28;20040;-62
2023/03/24 06:33:58;;;;;;;4.15;3.40;;;12.30;99.90;;;;;;5040073;28;20062;-62
2023/03/24 06:36:29;;;;;;;3.80;3.20;;;12.40;99.90;;;;;;5052242;28;20051;-62
2023/03/24 06:39:04;;;;;;;5.57;3.75;;;12.50;99.90;;;;;;5033619;28;20413;-62
2023/03/24 06:41:36;;;;;;;;;;;12.60;99.90;;;;;;5056994;28;20033;-63
2023/03/24 06:44:09;;;;;;;4.68;3.47;;;12.70;99.90;;;;;;5054072;28;19925;-62
2023/03/24 06:46:41;;;;;;;3.97;3.42;;;12.70;99.90;;;;;;5037904;28;20583;-62
2023/03/24 06:49:13;;;;;;;5.25;3.80;;;12.70;99.90;;;;;;5035126;28;20036;-62
2023/03/24 06:51:45;;;;;;;4.20;3.42;;;12.70;99.90;;;;;;5056142;28;20045;-62
2023/03/24 06:54:18;;;;;;;;;;;12.70;99.90;;;;;;5061153;28;20060;-62
2023/03/24 06:56:50;;;;;;;5.88;4.32;;;12.70;99.90;;;;;;5029381;28;19924;-62
2023/03/24 06:59:24;;;;;;;5.32;3.97;;;12.70;99.90;;;;;;5066265;28;20141;-63
2023/03/24 07:01:55;;;;;;;4.32;3.85;;;12.60;99.90;;;;;;5033653;28;20037;-64
2023/03/24 07:04:35;;;;;;;6.90;4.25;;;12.60;99.90;;;;;;5056523;28;20410;-64
2023/03/24 07:07:12;;;;;;;5.50;3.95;;;12.50;99.90;;;;;;5062370;28;20041;-64
2023/03/24 07:09:49;;;;;;;6.18;4.65;;;12.50;99.90;;;;;;5042714;28;20035;-64
2023/03/24 07:12:21;;;;;;;4.70;3.58;;;12.40;99.90;;;;;;5044084;28;20040;-64
2023/03/24 07:14:48;;;;;;;5.47;3.97;;;12.40;99.90;;;;;;5054783;28;20109;-64
2023/03/24 07:17:21;;;;;;;4.25;3.17;;;12.30;99.90;;;;;;5023824;28;20045;-64
2023/03/24 07:20:10;;;;;;;6.55;3.53;;;12.40;99.90;;;;;;5022893;28;20259;-64
2023/03/24 07:22:49;;;;;;;5.57;3.42;;;12.30;99.90;;;;;;5044035;28;20499;-63
2023/03/24 07:25:25;;;;;;;5.03;3.58;;;12.30;99.90;;;;;;5039631;28;20044;-64
2023/03/24 07:28:07;;;;;;;4.13;3.60;;;12.30;99.90;;;;;;5038376;28;20048;-63
2023/03/24 07:30:35;;;;;;;7.75;3.28;;;12.30;99.90;;;;;;5053212;28;20039;-64
2023/03/24 07:33:11;;;;;;;5.80;3.63;;;12.30;99.90;;;;;;5040473;28;20044;-64
2023/03/24 07:35:44;;;;;;;3.65;3.10;;;12.30;99.90;;;;;;5035362;28;20044;-63
2023/03/24 07:38:16;;;;;;;7.32;4.40;;;12.30;99.90;;;;;;5037766;28;20410;-64
2023/03/24 07:40:46;;;;;;;6.28;3.85;;;12.30;99.90;;;;;;5044692;28;20040;-64
2023/03/24 07:43:20;;;;;;;3.90;3.05;;;12.30;99.90;;;;;;5044518;28;20072;-64
2023/03/24 07:46:13;;;;;;;3.88;3.40;;;12.20;99.90;;;;;;5043074;28;20049;-63
2023/03/24 07:48:46;;;;;;;3.83;3.33;;;12.10;99.90;;;;;;5056898;28;20045;-63
2023/03/24 07:51:21;;;;;;;4.00;3.20;;;12.10;99.90;;;;;;5036169;28;20041;-63
2023/03/24 07:54:10;;;;;;;5.45;3.03;;;12.10;99.90;;;;;;5045199;28;20107;-64
2023/03/24 07:56:46;;;;;;;5.30;3.67;;;12.10;99.90;;;;;;5038611;28;20068;-64
2023/03/24 07:59:16;;;;;;;4.07;2.97;;;12.00;99.90;;;;;;5063942;28;20042;-64
2023/03/24 08:01:49;;;;;;;3.65;3.30;;;12.10;99.90;;;;;;5055292;28;20146;-65
2023/03/24 08:04:32;;;;;;;4.50;3.28;;;12.00;99.90;;;;;;5051537;28;20041;-65
2023/03/24 08:07:13;;;;;;;4.65;3.40;;;12.00;99.90;;;;;;5043538;28;20045;-65
2023/03/24 08:09:46;;;;;;;4.60;3.78;;;12.00;99.90;;;;;;5035243;28;20119;-64
2023/03/24 08:12:13;;;;;;;5.03;3.60;;;12.00;99.90;;;;;;5056727;28;20135;-65
2023/03/24 08:14:46;;;;;;;5.85;3.75;;;12.00;99.90;;;;;;5062525;28;20131;-65
2023/03/24 08:17:19;;;;;;;4.95;3.90;;;12.10;99.90;;;;;;5056175;28;20574;-65
2023/03/24 08:19:50;;;;;;;5.70;4.30;;;12.00;99.90;;;;;;5054006;28;20067;-65
2023/03/24 08:22:22;;;;;;;5.15;4.55;;;12.00;99.90;;;;;;5052929;28;20409;-65
2023/03/24 08:24:54;;;;;;;5.22;4.40;;;12.10;99.90;;;;;;5012390;28;20052;-65
2023/03/24 08:27:26;;;;;;;5.40;4.55;;;12.10;99.90;;;;;;5050628;28;20120;-65
2023/03/24 08:29:58;;;;;;;6.20;4.55;;;12.10;99.90;;;;;;5033876;28;20051;-65
2023/03/24 08:32:24;;;;;;;5.50;4.53;;;12.20;99.90;;;;;;5052654;28;20060;-64
2023/03/24 08:34:57;;;;;;;6.20;5.10;;;12.10;99.90;;;;;;5044629;28;20036;-63
2023/03/24 08:37:29;;;;;;;6.13;5.07;;;12.10;99.90;;;;;;5052409;28;20567;-64
2023/03/24 08:39:57;;;;;;;6.15;4.35;;;12.20;99.90;;;;;;5055683;28;20040;-63
2023/03/24 08:42:29;;;;;;;5.60;4.82;;;12.30;99.90;;;;;;5055674;28;20111;-63
2023/03/24 08:45:01;;;;;;;9.02;4.55;;;12.30;99.90;;;;;;5051895;28;20041;-63
2023/03/24 08:47:33;;;;;;;6.18;4.75;;;12.30;99.90;;;;;;5052793;28;20044;-63
2023/03/24 08:50:07;;;;;;;5.30;4.80;;;12.40;99.90;;;;;;5044821;28;20037;-63
2023/03/24 08:52:40;;;;;;;6.75;5.20;;;12.30;99.90;;;;;;5051879;28;20444;-63
2023/03/24 08:55:16;;;;;;;;;;;12.30;99.90;;;;;;5050663;28;20040;-63
2023/03/24 08:57:48;;;;;;;5.95;4.28;;;12.30;99.90;;;;;;5066776;28;19924;-64
2023/03/24 09:00:21;;;;;;;5.65;4.88;;;12.30;99.90;;;;;;5054702;28;20045;-64
2023/03/24 09:02:54;;;;;;;5.43;4.60;;;12.30;99.90;;;;;;5060425;28;20036;-63
2023/03/24 09:05:26;;;;;;;5.28;3.90;;;12.40;99.90;;;;;;5055782;28;20072;-64
2023/03/24 09:07:54;;;;;;;5.75;3.42;;;12.40;99.90;;;;;;5053587;28;20060;-64
2023/03/24 09:10:26;;;;;;;3.72;3.08;;;12.50;99.90;;;;;;5050923;28;20032;-64
2023/03/24 09:12:58;;;;;;;3.83;3.20;;;12.50;99.90;;;;;;5049767;28;20094;-63
2023/03/24 09:15:30;;;;;;;4.15;2.78;;;12.60;99.90;;;;;;5032041;28;20036;-63
2023/03/24 09:18:02;;;;;;;3.33;2.90;;;12.60;99.90;;;;;;5034091;28;20546;-64
2023/03/24 09:20:34;;;;;;;5.35;3.00;;;12.70;99.90;;;;;;5053789;28;20438;-64
2023/03/24 09:23:06;;;;;;;3.28;2.97;;;12.60;99.90;;;;;;5051427;28;20041;-63
2023/03/24 09:25:38;;;;;;;3.88;2.60;;;12.60;99.90;;;;;;5052379;28;20521;-64
2023/03/24 09:28:12;;;;;;;3.53;2.65;;;12.60;99.90;;;;;;5052615;28;20037;-63
2023/03/24 09:30:45;;;;;;;3.85;2.50;;;12.50;99.90;;;;;;5049698;28;20049;-63
2023/03/24 09:33:18;;;;;;;3.95;3.13;;;12.50;99.90;;;;;;5048499;28;20094;-63
2023/03/24 09:35:55;;;;;;;8.00;3.33;;;12.50;99.90;;;;;;5043077;28;20055;-63
2023/03/24 09:38:28;;;;;;;3.78;3.17;;;12.50;99.90;;;;;;5054622;28;20071;-63
2023/03/24 09:41:02;;;;;;;3.35;2.85;;;12.40;99.90;;;;;;5052893;28;20048;-63
2023/03/24 09:43:43;;;;;;;5.35;3.08;;;12.50;99.90;;;;;;5038793;28;20124;-63
2023/03/24 09:46:25;;;;;;;3.85;2.85;;;12.50;99.90;;;;;;5050492;28;20029;-64
2023/03/24 09:48:58;;;;;;;4.43;3.28;;;12.40;99.90;;;;;;5042036;28;20489;-64
2023/03/24 09:51:39;;;;;;;3.40;2.90;;;12.40;99.90;;;;;;5051894;28;20099;-63
2023/03/24 09:54:45;;;;;;;3.92;2.85;;;12.30;99.90;;;;;;5046700;28;20423;-64
2023/03/24 09:57:24;;;;;;;4.13;3.25;;;12.30;99.90;;;;;;5049459;28;20528;-64
2023/03/24 09:59:56;;;;;;;4.65;3.30;;;12.40;99.90;;;;;;5055865;28;20067;-64
2023/03/24 10:02:39;;;;;;;4.55;3.40;;;12.40;99.90;;;;;;5049597;28;20041;-64
2023/03/24 10:05:24;;;;;;;4.43;3.58;;;12.40;99.90;;;;;;5055723;28;20598;-64
2023/03/24 10:08:23;;;;;;;3.85;3.33;;;12.50;99.90;;;;;;5036383;28;20045;-63
2023/03/24 10:11:07;;;;;;;5.15;3.75;;;12.60;99.90;;;;;;5052143;28;20037;-63
2023/03/24 10:13:58;;;;;;;5.43;4.05;;;12.60;99.90;;;;;;5052678;28;20037;-66
2023/03/24 10:16:49;;;;;;;4.90;4.00;;;12.60;99.90;;;;;;5049353;28;20048;-63
2023/03/24 10:19:50;;;;;;;6.82;3.85;;;12.60;99.90;;;;;;5048281;28;20193;-63
2023/03/24 10:22:31;;;;;;;4.30;3.72;;;12.60;99.90;;;;;;5049512;28;20037;-63
2023/03/24 10:25:24;;;;;;;4.65;3.60;;;12.60;99.90;;;;;;5047642;28;20041;-64
2023/03/24 10:28:01;;;;;;;5.32;3.97;;;12.50;99.90;;;;;;5049267;28;20041;-63
2023/03/24 10:30:38;;;;;;;6.35;4.18;;;12.50;99.90;;;;;;5049453;28;20120;-63
2023/03/24 10:33:12;;;;;;;5.35;3.30;;;12.50;99.90;;;;;;5047914;28;20045;-63
2023/03/24 10:35:55;;;;;;;6.60;3.60;;;12.40;99.90;;;;;;5048752;28;20098;-64
2023/03/24 10:38:27;;;;;;;8.05;3.65;;;12.50;99.90;;;;;;5049337;28;20045;-64
2023/03/24 10:41:00;;;;;;;3.80;3.13;;;12.50;99.90;;;;;;5048549;28;20044;-63
2023/03/24 10:43:32;;;;;;;4.73;2.63;;;12.60;99.90;;;;;;5052793;28;20037;-63
2023/03/24 10:46:05;;;;;;;2.75;2.40;;;12.70;99.90;;;;;;5049371;28;20856;-63
2023/03/24 10:48:46;;;;;;;3.15;2.30;;;12.80;99.90;;;;;;5051467;28;20036;-63
2023/03/24 10:51:25;;;;;;;3.45;2.40;;;13.00;99.90;;;;;;5053289;28;20382;-63
2023/03/24 10:54:25;;;;;;;3.47;2.20;;;13.10;99.90;;;;;;5050284;28;20037;-63
2023/03/24 10:56:57;;;;;;;3.92;2.53;;;13.10;99.90;;;;;;5035097;28;20049;-63
2023/03/24 10:59:37;;;;;;;3.70;2.42;;;13.20;99.90;;;;;;5053517;28;20501;-63
2023/03/24 11:02:09;;;;;;;3.05;2.30;;;13.30;99.90;;;;;;5045430;28;20041;-63
2023/03/24 11:04:46;;;;;;;2.67;2.08;;;13.40;99.90;;;;;;5051597;28;20505;-63
2023/03/24 11:07:23;;;;;;;3.53;2.50;;;13.50;99.90;;;;;;5046592;28;20086;-63
2023/03/24 11:10:10;;;;;;;3.58;2.45;;;13.60;99.90;;;;;;5062312;28;20045;-64
2023/03/24 11:12:52;;;;;;;4.47;2.90;;;13.90;99.90;;;;;;5033377;28;20045;-63
2023/03/24 11:15:32;;;;;;;3.40;2.50;;;14.00;99.90;;;;;;5034511;28;20118;-63
2023/03/24 11:18:15;;;;;;;3.08;2.60;;;14.10;99.90;;;;;;5056062;28;20086;-63
2023/03/24 11:20:56;;;;;;;2.60;2.40;;;14.10;99.90;;;;;;5055233;28;20049;-63
2023/03/24 11:23:41;;;;;;;3.97;2.83;;;14.10;99.90;;;;;;5052524;28;20037;-63
2023/03/24 11:26:27;;;;;;;3.28;2.60;;;14.10;99.90;;;;;;5033510;28;20037;-63
2023/03/24 11:29:06;;;;;;;3.90;2.80;;;14.10;99.90;;;;;;5037116;28;20036;-63
2023/03/24 11:31:38;;;;;;;5.65;3.08;;;14.10;99.90;;;;;;5057077;28;20037;-63
2023/03/24 11:34:32;;;;;;;4.75;3.00;;;14.10;99.90;;;;;;5054231;28;20036;-63
2023/03/24 11:37:18;;;;;;;4.45;2.90;;;14.10;99.90;;;;;;5032206;28;20037;-63
2023/03/24 11:40:22;;;;;;;3.55;3.00;;;14.10;99.90;;;;;;5050414;28;20084;-63
2023/03/24 11:42:59;;;;;;;4.70;3.28;;;14.20;99.90;;;;;;5042346;28;20048;-63
2023/03/24 11:45:41;;;;;;;3.47;2.70;;;14.20;99.90;;;;;;5054577;28;20033;-63
2023/03/24 11:48:34;;;;;;;3.72;2.63;;;14.20;99.90;;;;;;5052441;28;20033;-63
2023/03/24 11:51:11;;;;;;;4.45;3.10;;;14.20;99.90;;;;;;5050936;28;20041;-63
2023/03/24 11:53:48;;;;;;;2.88;2.30;;;14.20;99.90;;;;;;5049759;28;20041;-63
2023/03/24 11:56:29;;;;;;;3.97;2.35;;;14.20;99.90;;;;;;5036038;28;20040;-62
2023/03/24 11:59:30;;;;;;;2.78;2.00;;;14.20;99.90;;;;;;5051058;28;20044;-62
2023/03/24 12:02:28;;;;;;;2.90;2.17;;;14.10;99.90;;;;;;5052484;28;20974;-62
2023/03/24 12:05:20;;;;;;;2.78;1.73;;;14.10;99.90;;;;;;5047508;28;20052;-63
2023/03/24 12:08:13;;;;;;;3.17;2.88;;;14.00;99.90;;;;;;5038366;28;20051;-62
2023/03/24 12:10:47;;;;;;;3.22;1.75;;;13.90;99.90;;;;;;5028698;28;20053;-63
2023/03/24 12:13:19;;;;;;;2.40;2.08;;;13.90;99.90;;;;;;5055042;28;20132;-62
2023/03/24 12:16:15;;;;;;;2.67;1.77;;;13.80;99.90;;;;;;5058681;28;20041;-63
2023/03/24 12:19:16;;;;;;;2.63;1.58;;;13.90;99.90;;;;;;5039339;28;20134;-62
2023/03/24 12:22:17;;;;;;;1.95;1.20;;;13.90;99.90;;;;;;5040174;28;20044;-63
2023/03/24 12:25:00;;;;;;;2.03;1.27;;;13.90;99.90;;;;;;5048521;28;20051;-62
2023/03/24 12:27:47;;;;;;;1.55;1.33;;;13.70;99.90;;;;;;5049906;28;20102;-62
2023/03/24 12:30:45;;;;;;;2.80;1.08;;;13.60;99.90;;;;;;5047778;28;20094;-62
2023/03/24 12:33:48;;;;;;;1.92;0.90;;;13.60;99.90;;;;;;5042916;28;20049;-62
2023/03/24 12:36:47;;;;;;;1.40;1.13;;;13.50;99.90;;;;;;5049371;28;20112;-62
2023/03/24 12:39:34;;;;;;;1.70;1.40;;;13.50;99.90;;;;;;5032748;28;20033;-62
2023/03/24 12:42:11;;;;;;;1.30;0.82;;;13.40;99.90;;;;;;5043104;28;20122;-62
2023/03/24 12:45:02;;;;;;;1.42;1.20;;;13.30;99.90;;;;;;5047937;28;20037;-62
2023/03/24 12:47:42;;;;;;;1.45;1.13;;;13.20;99.90;;;;;;5046497;28;20036;-62
2023/03/24 12:50:34;;;;;;;3.95;1.17;;;13.10;99.90;;;;;;5046760;28;20045;-62
2023/03/24 12:53:06;;;;;;;2.42;1.48;;;13.10;99.90;;;;;;5046970;28;20037;-62
2023/03/24 12:55:41;;;;;;;1.65;1.20;;;13.10;99.90;;;;;;5046267;28;20037;-62
2023/03/24 12:58:31;;;;;;;1.60;1.23;;;13.10;99.90;;;;;;5028858;28;20045;-63
2023/03/24 13:01:12;;;;;;;1.65;1.10;;;13.10;99.90;;;;;;5030188;28;20513;-62
2023/03/24 13:03:48;;;;;;;1.73;1.23;;;13.10;99.90;;;;;;5030003;28;20124;-63
2023/03/24 13:06:41;;;;;;;1.65;0.82;;;13.20;99.90;;;;;;5047134;28;20033;-62
2023/03/24 13:09:24;;;;;;;1.20;1.10;;;13.30;99.90;;;;;;5033321;28;20045;-62
2023/03/24 13:12:04;;;;;;;1.42;0.93;;;13.30;99.90;;;;;;5047245;28;20048;-62
2023/03/24 13:14:51;;;;;;;1.42;1.25;;;13.40;99.90;;;;;;5049624;28;20456;-62
2023/03/24 13:17:31;;;;;;;2.55;1.20;;;13.40;99.90;;;;;;5047187;28;20704;-62
2023/03/24 13:20:07;;;;;;;1.65;1.20;;;13.40;99.90;;;;;;5031225;28;20044;-62
2023/03/24 13:22:39;;;;;;;1.40;1.20;;;13.40;99.90;;;;;;5047631;28;20029;-62
2023/03/24 13:25:44;;;;;;;1.50;1.30;;;13.40;99.90;;;;;;5049773;28;20037;-63
2023/03/24 13:28:22;;;;;;;1.33;0.93;;;13.40;99.90;;;;;;5022993;28;20061;-62
2023/03/24 13:30:55;;;;;;;3.92;0.80;;;13.40;99.90;;;;;;5048755;28;20040;-62
2023/03/24 13:33:30;;;;;;;1.30;0.85;;;13.40;99.90;;;;;;5062744;28;20060;-62
2023/03/24 13:36:25;;;;;;;1.95;0.70;;;13.40;99.90;;;;;;5049607;28;20041;-62
2023/03/24 13:39:04;;;;;;;1.08;0.80;;;13.30;99.90;;;;;;5046260;28;20053;-62
2023/03/24 13:41:36;;;;;;;1.73;0.90;;;13.30;99.90;;;;;;5050071;28;20539;-62
2023/03/24 13:44:19;;;;;;;1.20;0.80;;;13.30;99.90;;;;;;5030529;28;20044;-62
2023/03/24 13:47:05;;;;;;;1.20;0.90;;;13.20;99.90;;;;;;5045018;28;20041;-62
2023/03/24 13:49:33;;;;;;;1.48;1.10;;;13.10;99.90;;;;;;5048177;28;20033;-63
2023/03/24 13:52:19;;;;;;;1.63;0.93;;;12.90;99.90;;;;;;5050150;28;20083;-63
2023/03/24 13:54:47;;;;;;;1.33;0.93;;;12.70;99.90;;;;;;5043801;28;20041;-62